Terminal Aerodrome Forecast
Issued by NWS

Home | Current Version | Previous Version | Text Only | Print | Product List | Glossary On
Versions: 1 2 3 4 5 6 7 8 9 10 11 12 13 14 15 16 17 18 19 20 21 22 23 24 25 26 27 28 29 30 31 32 33 34 35 36 37 38 39
000
FTUS45 KGJT 012322
TAFEGE
TAF
KEGE 012322Z 0200/0224 17009KT P6SM VCTS SCT070CB SCT140
     FM020300 12005KT P6SM FEW100 SCT200
     FM021700 24010G20KT P6SM SCT200
      AMD LTD TO CLD VIS AND WIND 0202/0213=

USA.gov is the U.S. government's official web portal to all federal, state and local government web resources and services.